sensor_id;sensor_type;location;lat;lon;timestamp;P1;durP1;ratioP1;P2;durP2;ratioP2
2674;SDS011;1347;42.122;24.746;2023-01-16T00:01:33;36.90;;;22.20;;
2674;SDS011;1347;42.122;24.746;2023-01-16T00:04:00;30.23;;;19.77;;
2674;SDS011;1347;42.122;24.746;2023-01-16T00:06:27;32.73;;;20.33;;
2674;SDS011;1347;42.122;24.746;2023-01-16T00:08:56;31.00;;;19.53;;
2674;SDS011;1347;42.122;24.746;2023-01-16T00:11:23;27.37;;;19.17;;
2674;SDS011;1347;42.122;24.746;2023-01-16T00:13:50;33.80;;;20.13;;
2674;SDS011;1347;42.122;24.746;2023-01-16T00:16:18;31.40;;;20.40;;
2674;SDS011;1347;42.122;24.746;2023-01-16T00:18:46;33.77;;;20.93;;
2674;SDS011;1347;42.122;24.746;2023-01-16T00:21:14;31.53;;;20.77;;
2674;SDS011;1347;42.122;24.746;2023-01-16T00:23:41;33.50;;;20.60;;
2674;SDS011;1347;42.122;24.746;2023-01-16T00:26:09;31.07;;;20.20;;
2674;SDS011;1347;42.122;24.746;2023-01-16T00:28:37;34.50;;;21.27;;
2674;SDS011;1347;42.122;24.746;2023-01-16T00:31:04;31.80;;;20.70;;
2674;SDS011;1347;42.122;24.746;2023-01-16T00:33:31;26.57;;;18.80;;
2674;SDS011;1347;42.122;24.746;2023-01-16T00:35:59;34.27;;;19.83;;
2674;SDS011;1347;42.122;24.746;2023-01-16T00:38:26;28.97;;;18.30;;
2674;SDS011;1347;42.122;24.746;2023-01-16T00:40:53;32.80;;;18.23;;
2674;SDS011;1347;42.122;24.746;2023-01-16T00:43:22;31.00;;;20.70;;
2674;SDS011;1347;42.122;24.746;2023-01-16T00:45:49;28.03;;;19.53;;
2674;SDS011;1347;42.122;24.746;2023-01-16T00:48:16;31.30;;;20.43;;
2674;SDS011;1347;42.122;24.746;2023-01-16T00:50:43;35.33;;;20.20;;
2674;SDS011;1347;42.122;24.746;2023-01-16T00:53:10;31.33;;;18.97;;
2674;SDS011;1347;42.122;24.746;2023-01-16T00:55:37;30.40;;;19.27;;
2674;SDS011;1347;42.122;24.746;2023-01-16T00:58:06;27.17;;;18.90;;
2674;SDS011;1347;42.122;24.746;2023-01-16T01:00:35;27.57;;;19.03;;
2674;SDS011;1347;42.122;24.746;2023-01-16T01:03:02;30.40;;;19.80;;
2674;SDS011;1347;42.122;24.746;2023-01-16T01:05:30;32.93;;;20.80;;
2674;SDS011;1347;42.122;24.746;2023-01-16T01:07:57;29.43;;;19.37;;
2674;SDS011;1347;42.122;24.746;2023-01-16T01:10:24;26.73;;;20.10;;
2674;SDS011;1347;42.122;24.746;2023-01-16T01:12:52;29.40;;;20.00;;
2674;SDS011;1347;42.122;24.746;2023-01-16T01:15:21;30.63;;;20.00;;
2674;SDS011;1347;42.122;24.746;2023-01-16T01:17:49;32.23;;;20.20;;
2674;SDS011;1347;42.122;24.746;2023-01-16T01:20:16;30.10;;;20.67;;
2674;SDS011;1347;42.122;24.746;2023-01-16T01:22:43;31.40;;;21.07;;
2674;SDS011;1347;42.122;24.746;2023-01-16T01:25:11;28.20;;;19.93;;
2674;SDS011;1347;42.122;24.746;2023-01-16T01:27:38;32.63;;;19.70;;
2674;SDS011;1347;42.122;24.746;2023-01-16T01:30:06;28.37;;;19.33;;
2674;SDS011;1347;42.122;24.746;2023-01-16T01:32:34;25.00;;;18.90;;
2674;SDS011;1347;42.122;24.746;2023-01-16T01:35:04;36.67;;;22.80;;
2674;SDS011;1347;42.122;24.746;2023-01-16T01:37:31;30.90;;;21.23;;
2674;SDS011;1347;42.122;24.746;2023-01-16T01:39:59;32.97;;;22.27;;
2674;SDS011;1347;42.122;24.746;2023-01-16T01:42:26;32.57;;;21.70;;
2674;SDS011;1347;42.122;24.746;2023-01-16T01:45:11;39.37;;;23.47;;
2674;SDS011;1347;42.122;24.746;2023-01-16T01:47:43;32.10;;;23.20;;
2674;SDS011;1347;42.122;24.746;2023-01-16T01:50:20;35.53;;;25.83;;
2674;SDS011;1347;42.122;24.746;2023-01-16T01:52:53;31.40;;;23.47;;
2674;SDS011;1347;42.122;24.746;2023-01-16T01:55:24;33.10;;;23.77;;
2674;SDS011;1347;42.122;24.746;2023-01-16T01:57:52;34.77;;;24.10;;
2674;SDS011;1347;42.122;24.746;2023-01-16T02:00:22;30.33;;;21.90;;
2674;SDS011;1347;42.122;24.746;2023-01-16T02:02:52;33.50;;;24.00;;
2674;SDS011;1347;42.122;24.746;2023-01-16T02:05:28;29.50;;;21.00;;
2674;SDS011;1347;42.122;24.746;2023-01-16T02:07:57;37.27;;;23.33;;
2674;SDS011;1347;42.122;24.746;2023-01-16T02:10:29;32.47;;;22.87;;
2674;SDS011;1347;42.122;24.746;2023-01-16T02:13:00;31.57;;;21.87;;
2674;SDS011;1347;42.122;24.746;2023-01-16T02:15:28;30.30;;;23.20;;
2674;SDS011;1347;42.122;24.746;2023-01-16T02:17:56;32.60;;;23.17;;
2674;SDS011;1347;42.122;24.746;2023-01-16T02:20:53;32.10;;;23.87;;
2674;SDS011;1347;42.122;24.746;2023-01-16T02:23:45;31.57;;;21.87;;
2674;SDS011;1347;42.122;24.746;2023-01-16T02:26:47;35.93;;;24.03;;
2674;SDS011;1347;42.122;24.746;2023-01-16T02:29:36;33.53;;;24.60;;
2674;SDS011;1347;42.122;24.746;2023-01-16T02:32:30;35.87;;;24.87;;
2674;SDS011;1347;42.122;24.746;2023-01-16T02:35:10;37.33;;;27.97;;
2674;SDS011;1347;42.122;24.746;2023-01-16T02:37:49;37.00;;;27.93;;
2674;SDS011;1347;42.122;24.746;2023-01-16T02:40:27;37.63;;;28.30;;
2674;SDS011;1347;42.122;24.746;2023-01-16T02:43:07;40.90;;;27.93;;
2674;SDS011;1347;42.122;24.746;2023-01-16T02:45:42;35.70;;;28.30;;
2674;SDS011;1347;42.122;24.746;2023-01-16T02:48:18;37.80;;;27.77;;
2674;SDS011;1347;42.122;24.746;2023-01-16T02:50:52;40.07;;;28.23;;
2674;SDS011;1347;42.122;24.746;2023-01-16T02:53:27;40.03;;;26.97;;
2674;SDS011;1347;42.122;24.746;2023-01-16T02:56:02;35.17;;;27.50;;
2674;SDS011;1347;42.122;24.746;2023-01-16T02:58:34;38.50;;;26.30;;
2674;SDS011;1347;42.122;24.746;2023-01-16T03:01:05;38.50;;;26.17;;
2674;SDS011;1347;42.122;24.746;2023-01-16T03:03:39;43.10;;;27.13;;
2674;SDS011;1347;42.122;24.746;2023-01-16T03:09:07;34.40;;;24.20;;
2674;SDS011;1347;42.122;24.746;2023-01-16T03:11:47;47.70;;;25.73;;
2674;SDS011;1347;42.122;24.746;2023-01-16T03:14:28;35.17;;;25.37;;
2674;SDS011;1347;42.122;24.746;2023-01-16T03:17:07;33.17;;;23.27;;
2674;SDS011;1347;42.122;24.746;2023-01-16T03:19:51;34.80;;;25.03;;
2674;SDS011;1347;42.122;24.746;2023-01-16T03:22:26;35.93;;;24.43;;
2674;SDS011;1347;42.122;24.746;2023-01-16T03:25:04;37.80;;;25.53;;
2674;SDS011;1347;42.122;24.746;2023-01-16T03:27:41;38.43;;;25.13;;
2674;SDS011;1347;42.122;24.746;2023-01-16T03:30:18;37.00;;;25.40;;
2674;SDS011;1347;42.122;24.746;2023-01-16T03:32:52;38.43;;;24.33;;
2674;SDS011;1347;42.122;24.746;2023-01-16T03:35:26;36.00;;;25.40;;
2674;SDS011;1347;42.122;24.746;2023-01-16T03:38:00;38.60;;;25.50;;
2674;SDS011;1347;42.122;24.746;2023-01-16T03:40:33;40.40;;;26.50;;
2674;SDS011;1347;42.122;24.746;2023-01-16T03:43:04;42.03;;;25.57;;
2674;SDS011;1347;42.122;24.746;2023-01-16T03:45:36;37.43;;;24.73;;
2674;SDS011;1347;42.122;24.746;2023-01-16T03:48:09;38.30;;;25.13;;
2674;SDS011;1347;42.122;24.746;2023-01-16T03:50:44;41.70;;;25.43;;
2674;SDS011;1347;42.122;24.746;2023-01-16T03:53:18;37.93;;;26.20;;
2674;SDS011;1347;42.122;24.746;2023-01-16T03:55:53;37.10;;;24.73;;
2674;SDS011;1347;42.122;24.746;2023-01-16T03:58:28;40.60;;;25.50;;
2674;SDS011;1347;42.122;24.746;2023-01-16T04:01:03;38.60;;;25.77;;
2674;SDS011;1347;42.122;24.746;2023-01-16T04:03:38;42.90;;;26.83;;
2674;SDS011;1347;42.122;24.746;2023-01-16T04:06:12;44.77;;;27.80;;
2674;SDS011;1347;42.122;24.746;2023-01-16T04:08:45;44.03;;;29.63;;
2674;SDS011;1347;42.122;24.746;2023-01-16T04:11:14;48.03;;;29.00;;
2674;SDS011;1347;42.122;24.746;2023-01-16T04:13:43;48.60;;;29.80;;
2674;SDS011;1347;42.122;24.746;2023-01-16T04:16:14;41.63;;;29.20;;
2674;SDS011;1347;42.122;24.746;2023-01-16T04:18:44;45.53;;;29.00;;
2674;SDS011;1347;42.122;24.746;2023-01-16T04:21:13;36.73;;;24.37;;
2674;SDS011;1347;42.122;24.746;2023-01-16T04:23:41;38.50;;;24.30;;
2674;SDS011;1347;42.122;24.746;2023-01-16T04:26:08;40.00;;;25.60;;
2674;SDS011;1347;42.122;24.746;2023-01-16T04:28:36;31.43;;;22.50;;
2674;SDS011;1347;42.122;24.746;2023-01-16T04:31:03;37.53;;;24.20;;
2674;SDS011;1347;42.122;24.746;2023-01-16T04:33:30;33.47;;;22.57;;
2674;SDS011;1347;42.122;24.746;2023-01-16T04:35:57;40.10;;;25.33;;
2674;SDS011;1347;42.122;24.746;2023-01-16T04:38:26;40.43;;;24.33;;
2674;SDS011;1347;42.122;24.746;2023-01-16T04:40:53;41.30;;;26.13;;
2674;SDS011;1347;42.122;24.746;2023-01-16T04:43:21;37.50;;;25.43;;
2674;SDS011;1347;42.122;24.746;2023-01-16T04:45:47;40.63;;;28.00;;
2674;SDS011;1347;42.122;24.746;2023-01-16T04:48:15;39.50;;;25.70;;
2674;SDS011;1347;42.122;24.746;2023-01-16T04:50:42;40.83;;;26.50;;
2674;SDS011;1347;42.122;24.746;2023-01-16T04:53:09;40.50;;;27.47;;
2674;SDS011;1347;42.122;24.746;2023-01-16T04:55:37;50.03;;;29.30;;
2674;SDS011;1347;42.122;24.746;2023-01-16T04:58:04;42.00;;;28.80;;
2674;SDS011;1347;42.122;24.746;2023-01-16T05:00:31;45.60;;;29.20;;
2674;SDS011;1347;42.122;24.746;2023-01-16T05:02:59;43.43;;;29.47;;
2674;SDS011;1347;42.122;24.746;2023-01-16T05:05:26;44.80;;;28.87;;
2674;SDS011;1347;42.122;24.746;2023-01-16T05:07:53;39.30;;;27.20;;
2674;SDS011;1347;42.122;24.746;2023-01-16T05:10:34;51.13;;;30.60;;
2674;SDS011;1347;42.122;24.746;2023-01-16T05:13:02;38.67;;;26.80;;
2674;SDS011;1347;42.122;24.746;2023-01-16T05:15:29;42.80;;;26.20;;
2674;SDS011;1347;42.122;24.746;2023-01-16T05:17:56;44.73;;;27.10;;
2674;SDS011;1347;42.122;24.746;2023-01-16T05:20:23;48.83;;;28.97;;
2674;SDS011;1347;42.122;24.746;2023-01-16T05:22:50;43.90;;;27.53;;
2674;SDS011;1347;42.122;24.746;2023-01-16T05:25:17;40.07;;;26.70;;
2674;SDS011;1347;42.122;24.746;2023-01-16T05:27:48;38.00;;;25.47;;
2674;SDS011;1347;42.122;24.746;2023-01-16T05:30:17;38.77;;;27.40;;
2674;SDS011;1347;42.122;24.746;2023-01-16T05:32:44;40.13;;;27.17;;
2674;SDS011;1347;42.122;24.746;2023-01-16T05:35:12;42.30;;;29.50;;
2674;SDS011;1347;42.122;24.746;2023-01-16T05:37:39;42.23;;;29.50;;
2674;SDS011;1347;42.122;24.746;2023-01-16T05:40:07;49.50;;;31.77;;
2674;SDS011;1347;42.122;24.746;2023-01-16T05:42:34;49.53;;;34.47;;
2674;SDS011;1347;42.122;24.746;2023-01-16T05:45:02;47.47;;;32.17;;
2674;SDS011;1347;42.122;24.746;2023-01-16T05:47:31;87.97;;;46.47;;
2674;SDS011;1347;42.122;24.746;2023-01-16T05:49:58;74.57;;;46.60;;
2674;SDS011;1347;42.122;24.746;2023-01-16T05:52:25;79.37;;;45.03;;
2674;SDS011;1347;42.122;24.746;2023-01-16T05:54:52;67.30;;;41.80;;
2674;SDS011;1347;42.122;24.746;2023-01-16T05:57:19;52.37;;;31.77;;
2674;SDS011;1347;42.122;24.746;2023-01-16T05:59:47;45.37;;;32.13;;
2674;SDS011;1347;42.122;24.746;2023-01-16T06:02:15;49.20;;;31.00;;
2674;SDS011;1347;42.122;24.746;2023-01-16T06:04:43;50.17;;;30.37;;
2674;SDS011;1347;42.122;24.746;2023-01-16T06:07:11;45.17;;;28.67;;
2674;SDS011;1347;42.122;24.746;2023-01-16T06:09:38;47.43;;;26.77;;
2674;SDS011;1347;42.122;24.746;2023-01-16T06:12:05;43.17;;;26.80;;
2674;SDS011;1347;42.122;24.746;2023-01-16T06:14:33;43.07;;;28.20;;
2674;SDS011;1347;42.122;24.746;2023-01-16T06:17:00;45.47;;;30.60;;
2674;SDS011;1347;42.122;24.746;2023-01-16T06:19:27;42.90;;;27.63;;
2674;SDS011;1347;42.122;24.746;2023-01-16T06:21:56;44.67;;;27.70;;
2674;SDS011;1347;42.122;24.746;2023-01-16T06:24:23;39.00;;;25.43;;
2674;SDS011;1347;42.122;24.746;2023-01-16T06:26:50;51.07;;;28.40;;
2674;SDS011;1347;42.122;24.746;2023-01-16T06:29:17;42.20;;;28.20;;
2674;SDS011;1347;42.122;24.746;2023-01-16T06:31:44;42.90;;;28.53;;
2674;SDS011;1347;42.122;24.746;2023-01-16T06:34:11;43.33;;;28.30;;
2674;SDS011;1347;42.122;24.746;2023-01-16T06:36:38;46.23;;;28.47;;
2674;SDS011;1347;42.122;24.746;2023-01-16T06:39:07;44.67;;;28.10;;
2674;SDS011;1347;42.122;24.746;2023-01-16T06:41:36;43.30;;;26.23;;
2674;SDS011;1347;42.122;24.746;2023-01-16T06:44:03;42.77;;;27.47;;
2674;SDS011;1347;42.122;24.746;2023-01-16T06:46:31;42.60;;;26.57;;
2674;SDS011;1347;42.122;24.746;2023-01-16T06:48:58;44.40;;;27.00;;
2674;SDS011;1347;42.122;24.746;2023-01-16T06:51:25;43.50;;;27.30;;
2674;SDS011;1347;42.122;24.746;2023-01-16T06:53:52;45.10;;;26.23;;
2674;SDS011;1347;42.122;24.746;2023-01-16T06:56:21;37.83;;;26.90;;
2674;SDS011;1347;42.122;24.746;2023-01-16T06:58:49;35.90;;;25.27;;
2674;SDS011;1347;42.122;24.746;2023-01-16T07:01:16;36.20;;;24.33;;
2674;SDS011;1347;42.122;24.746;2023-01-16T07:03:43;37.70;;;25.40;;
2674;SDS011;1347;42.122;24.746;2023-01-16T07:06:10;41.53;;;26.10;;
2674;SDS011;1347;42.122;24.746;2023-01-16T07:08:39;38.17;;;24.40;;
2674;SDS011;1347;42.122;24.746;2023-01-16T07:11:06;38.43;;;25.27;;
2674;SDS011;1347;42.122;24.746;2023-01-16T07:13:34;32.00;;;23.97;;
2674;SDS011;1347;42.122;24.746;2023-01-16T07:16:01;35.70;;;23.97;;
2674;SDS011;1347;42.122;24.746;2023-01-16T07:18:45;31.50;;;21.13;;
2674;SDS011;1347;42.122;24.746;2023-01-16T07:21:30;31.13;;;20.17;;
2674;SDS011;1347;42.122;24.746;2023-01-16T07:24:16;33.67;;;22.30;;
2674;SDS011;1347;42.122;24.746;2023-01-16T07:26:48;38.60;;;21.43;;
2674;SDS011;1347;42.122;24.746;2023-01-16T07:29:23;32.40;;;21.90;;
2674;SDS011;1347;42.122;24.746;2023-01-16T07:31:51;46.43;;;27.13;;
2674;SDS011;1347;42.122;24.746;2023-01-16T07:34:19;43.27;;;27.37;;
2674;SDS011;1347;42.122;24.746;2023-01-16T07:36:47;45.10;;;27.40;;
2674;SDS011;1347;42.122;24.746;2023-01-16T07:39:14;42.67;;;29.70;;
2674;SDS011;1347;42.122;24.746;2023-01-16T07:41:41;43.10;;;27.37;;
2674;SDS011;1347;42.122;24.746;2023-01-16T07:44:08;42.43;;;26.80;;
2674;SDS011;1347;42.122;24.746;2023-01-16T07:46:37;41.50;;;26.03;;
2674;SDS011;1347;42.122;24.746;2023-01-16T07:49:04;40.23;;;25.10;;
2674;SDS011;1347;42.122;24.746;2023-01-16T07:51:30;40.63;;;24.57;;
2674;SDS011;1347;42.122;24.746;2023-01-16T07:53:57;44.20;;;28.00;;
2674;SDS011;1347;42.122;24.746;2023-01-16T07:56:24;42.87;;;25.17;;
2674;SDS011;1347;42.122;24.746;2023-01-16T07:58:51;45.50;;;26.40;;
2674;SDS011;1347;42.122;24.746;2023-01-16T08:01:19;47.10;;;28.57;;
2674;SDS011;1347;42.122;24.746;2023-01-16T08:03:48;42.47;;;26.80;;
2674;SDS011;1347;42.122;24.746;2023-01-16T08:06:14;48.73;;;30.33;;
2674;SDS011;1347;42.122;24.746;2023-01-16T08:08:41;43.93;;;28.33;;
2674;SDS011;1347;42.122;24.746;2023-01-16T08:11:08;43.17;;;26.43;;
2674;SDS011;1347;42.122;24.746;2023-01-16T08:13:49;40.30;;;24.40;;
2674;SDS011;1347;42.122;24.746;2023-01-16T08:16:16;35.00;;;22.03;;
2674;SDS011;1347;42.122;24.746;2023-01-16T08:18:43;39.70;;;23.47;;
2674;SDS011;1347;42.122;24.746;2023-01-16T08:21:15;28.30;;;19.83;;
2674;SDS011;1347;42.122;24.746;2023-01-16T08:23:42;30.57;;;21.17;;
2674;SDS011;1347;42.122;24.746;2023-01-16T08:26:10;28.03;;;18.77;;
2674;SDS011;1347;42.122;24.746;2023-01-16T08:28:38;32.10;;;20.70;;
2674;SDS011;1347;42.122;24.746;2023-01-16T08:31:06;30.43;;;21.97;;
2674;SDS011;1347;42.122;24.746;2023-01-16T08:33:36;37.37;;;21.80;;
2674;SDS011;1347;42.122;24.746;2023-01-16T08:36:04;33.43;;;22.40;;
2674;SDS011;1347;42.122;24.746;2023-01-16T08:38:33;32.90;;;22.50;;
2674;SDS011;1347;42.122;24.746;2023-01-16T08:41:00;34.90;;;23.70;;
2674;SDS011;1347;42.122;24.746;2023-01-16T08:43:27;31.07;;;22.60;;
2674;SDS011;1347;42.122;24.746;2023-01-16T08:46:14;35.37;;;21.80;;
2674;SDS011;1347;42.122;24.746;2023-01-16T08:49:02;33.17;;;23.00;;
2674;SDS011;1347;42.122;24.746;2023-01-16T08:51:48;28.50;;;20.60;;
2674;SDS011;1347;42.122;24.746;2023-01-16T08:54:16;31.30;;;20.70;;
2674;SDS011;1347;42.122;24.746;2023-01-16T08:56:43;32.17;;;21.30;;
2674;SDS011;1347;42.122;24.746;2023-01-16T08:59:10;33.27;;;22.73;;
2674;SDS011;1347;42.122;24.746;2023-01-16T09:01:37;30.93;;;20.40;;
2674;SDS011;1347;42.122;24.746;2023-01-16T09:04:05;32.90;;;23.50;;
2674;SDS011;1347;42.122;24.746;2023-01-16T09:06:32;32.03;;;22.30;;
2674;SDS011;1347;42.122;24.746;2023-01-16T09:09:01;39.70;;;24.27;;
2674;SDS011;1347;42.122;24.746;2023-01-16T09:11:29;34.00;;;21.13;;
2674;SDS011;1347;42.122;24.746;2023-01-16T09:14:28;34.33;;;22.47;;
2674;SDS011;1347;42.122;24.746;2023-01-16T09:16:55;31.40;;;21.97;;
2674;SDS011;1347;42.122;24.746;2023-01-16T09:19:22;42.80;;;25.13;;
2674;SDS011;1347;42.122;24.746;2023-01-16T09:21:49;32.03;;;21.73;;
2674;SDS011;1347;42.122;24.746;2023-01-16T09:24:16;26.77;;;22.03;;
2674;SDS011;1347;42.122;24.746;2023-01-16T09:26:44;29.20;;;19.00;;
2674;SDS011;1347;42.122;24.746;2023-01-16T09:29:11;29.90;;;20.17;;
2674;SDS011;1347;42.122;24.746;2023-01-16T09:31:38;30.30;;;20.60;;
2674;SDS011;1347;42.122;24.746;2023-01-16T09:34:06;27.33;;;19.17;;
2674;SDS011;1347;42.122;24.746;2023-01-16T09:36:32;26.70;;;18.60;;
2674;SDS011;1347;42.122;24.746;2023-01-16T09:38:59;24.83;;;18.20;;
2674;SDS011;1347;42.122;24.746;2023-01-16T09:41:26;24.87;;;16.47;;
2674;SDS011;1347;42.122;24.746;2023-01-16T09:44:20;26.83;;;18.27;;
2674;SDS011;1347;42.122;24.746;2023-01-16T09:46:48;26.87;;;18.70;;
2674;SDS011;1347;42.122;24.746;2023-01-16T09:49:19;30.13;;;19.97;;
2674;SDS011;1347;42.122;24.746;2023-01-16T09:51:50;26.73;;;18.93;;
2674;SDS011;1347;42.122;24.746;2023-01-16T09:54:39;29.63;;;19.60;;
2674;SDS011;1347;42.122;24.746;2023-01-16T09:57:27;28.33;;;20.30;;
2674;SDS011;1347;42.122;24.746;2023-01-16T10:00:16;29.30;;;18.70;;
2674;SDS011;1347;42.122;24.746;2023-01-16T10:02:46;29.47;;;19.97;;
2674;SDS011;1347;42.122;24.746;2023-01-16T10:05:13;29.30;;;19.40;;
2674;SDS011;1347;42.122;24.746;2023-01-16T10:07:45;30.67;;;19.63;;
2674;SDS011;1347;42.122;24.746;2023-01-16T10:10:26;27.67;;;20.80;;
2674;SDS011;1347;42.122;24.746;2023-01-16T10:13:05;33.60;;;20.83;;
2674;SDS011;1347;42.122;24.746;2023-01-16T10:15:50;28.00;;;19.50;;
2674;SDS011;1347;42.122;24.746;2023-01-16T10:18:27;27.57;;;19.70;;
2674;SDS011;1347;42.122;24.746;2023-01-16T10:21:10;30.23;;;21.80;;
2674;SDS011;1347;42.122;24.746;2023-01-16T10:23:52;31.97;;;21.70;;
2674;SDS011;1347;42.122;24.746;2023-01-16T10:26:25;36.93;;;21.57;;
2674;SDS011;1347;42.122;24.746;2023-01-16T10:28:57;41.13;;;22.00;;
2674;SDS011;1347;42.122;24.746;2023-01-16T10:31:33;37.20;;;24.47;;
2674;SDS011;1347;42.122;24.746;2023-01-16T10:34:05;40.90;;;28.00;;
2674;SDS011;1347;42.122;24.746;2023-01-16T10:36:38;36.67;;;24.90;;
2674;SDS011;1347;42.122;24.746;2023-01-16T10:39:09;32.47;;;22.97;;
2674;SDS011;1347;42.122;24.746;2023-01-16T10:41:38;45.47;;;27.20;;
2674;SDS011;1347;42.122;24.746;2023-01-16T10:44:30;33.73;;;25.93;;
2674;SDS011;1347;42.122;24.746;2023-01-16T10:47:18;34.83;;;24.60;;
2674;SDS011;1347;42.122;24.746;2023-01-16T10:50:05;39.80;;;23.50;;
2674;SDS011;1347;42.122;24.746;2023-01-16T10:52:33;43.20;;;28.03;;
2674;SDS011;1347;42.122;24.746;2023-01-16T10:55:01;44.77;;;25.93;;
2674;SDS011;1347;42.122;24.746;2023-01-16T10:57:29;37.70;;;25.80;;
2674;SDS011;1347;42.122;24.746;2023-01-16T10:59:57;42.70;;;25.30;;
2674;SDS011;1347;42.122;24.746;2023-01-16T11:02:32;38.07;;;24.87;;
2674;SDS011;1347;42.122;24.746;2023-01-16T11:05:00;46.00;;;26.67;;
2674;SDS011;1347;42.122;24.746;2023-01-16T11:07:28;42.20;;;26.97;;
2674;SDS011;1347;42.122;24.746;2023-01-16T11:09:56;40.03;;;23.70;;
2674;SDS011;1347;42.122;24.746;2023-01-16T11:12:28;36.70;;;25.93;;
2674;SDS011;1347;42.122;24.746;2023-01-16T11:15:15;44.90;;;25.53;;
2674;SDS011;1347;42.122;24.746;2023-01-16T11:18:17;39.47;;;26.13;;
2674;SDS011;1347;42.122;24.746;2023-01-16T11:20:55;33.03;;;21.57;;
2674;SDS011;1347;42.122;24.746;2023-01-16T11:23:24;38.60;;;24.03;;
2674;SDS011;1347;42.122;24.746;2023-01-16T11:25:53;36.40;;;23.30;;
2674;SDS011;1347;42.122;24.746;2023-01-16T11:28:24;33.13;;;22.13;;
2674;SDS011;1347;42.122;24.746;2023-01-16T11:30:53;36.53;;;25.23;;
2674;SDS011;1347;42.122;24.746;2023-01-16T11:33:25;35.37;;;24.17;;
2674;SDS011;1347;42.122;24.746;2023-01-16T11:35:59;32.37;;;21.60;;
2674;SDS011;1347;42.122;24.746;2023-01-16T11:38:31;36.17;;;23.27;;
2674;SDS011;1347;42.122;24.746;2023-01-16T11:41:00;35.60;;;23.63;;
2674;SDS011;1347;42.122;24.746;2023-01-16T11:43:29;31.90;;;22.73;;
2674;SDS011;1347;42.122;24.746;2023-01-16T11:46:24;38.40;;;23.07;;
2674;SDS011;1347;42.122;24.746;2023-01-16T11:48:59;33.37;;;22.60;;
2674;SDS011;1347;42.122;24.746;2023-01-16T11:51:29;43.30;;;24.90;;
2674;SDS011;1347;42.122;24.746;2023-01-16T11:53:57;41.13;;;27.43;;
2674;SDS011;1347;42.122;24.746;2023-01-16T11:59:24;45.00;;;27.43;;
2674;SDS011;1347;42.122;24.746;2023-01-16T12:02:02;36.43;;;26.17;;
2674;SDS011;1347;42.122;24.746;2023-01-16T12:04:48;55.73;;;33.77;;
2674;SDS011;1347;42.122;24.746;2023-01-16T12:07:39;51.57;;;35.20;;
2674;SDS011;1347;42.122;24.746;2023-01-16T12:10:18;48.10;;;30.73;;
2674;SDS011;1347;42.122;24.746;2023-01-16T12:12:54;45.20;;;27.83;;
2674;SDS011;1347;42.122;24.746;2023-01-16T12:15:49;46.43;;;27.80;;
2674;SDS011;1347;42.122;24.746;2023-01-16T12:18:27;47.37;;;29.37;;
2674;SDS011;1347;42.122;24.746;2023-01-16T12:21:02;40.77;;;27.90;;
2674;SDS011;1347;42.122;24.746;2023-01-16T12:23:40;34.93;;;25.60;;
2674;SDS011;1347;42.122;24.746;2023-01-16T12:26:24;36.77;;;24.77;;
2674;SDS011;1347;42.122;24.746;2023-01-16T12:29:02;39.07;;;23.77;;
2674;SDS011;1347;42.122;24.746;2023-01-16T12:34:53;36.00;;;24.47;;
2674;SDS011;1347;42.122;24.746;2023-01-16T12:37:34;35.63;;;23.37;;
2674;SDS011;1347;42.122;24.746;2023-01-16T12:40:16;41.80;;;28.43;;
2674;SDS011;1347;42.122;24.746;2023-01-16T12:42:57;47.30;;;29.43;;
2674;SDS011;1347;42.122;24.746;2023-01-16T12:45:49;40.77;;;28.00;;
2674;SDS011;1347;42.122;24.746;2023-01-16T12:51:22;42.13;;;29.10;;
2674;SDS011;1347;42.122;24.746;2023-01-16T12:59:58;38.00;;;26.97;;
2674;SDS011;1347;42.122;24.746;2023-01-16T13:02:29;40.63;;;28.57;;
2674;SDS011;1347;42.122;24.746;2023-01-16T13:05:01;39.40;;;26.90;;
2674;SDS011;1347;42.122;24.746;2023-01-16T13:07:31;43.60;;;28.03;;
2674;SDS011;1347;42.122;24.746;2023-01-16T13:10:04;40.10;;;27.40;;
2674;SDS011;1347;42.122;24.746;2023-01-16T13:12:57;41.53;;;27.17;;
2674;SDS011;1347;42.122;24.746;2023-01-16T13:15:59;39.43;;;27.90;;
2674;SDS011;1347;42.122;24.746;2023-01-16T13:18:32;43.90;;;29.80;;
2674;SDS011;1347;42.122;24.746;2023-01-16T13:21:05;41.03;;;27.10;;
2674;SDS011;1347;42.122;24.746;2023-01-16T13:23:38;43.13;;;27.53;;
2674;SDS011;1347;42.122;24.746;2023-01-16T13:26:11;41.90;;;26.87;;
2674;SDS011;1347;42.122;24.746;2023-01-16T13:28:42;42.43;;;26.60;;
2674;SDS011;1347;42.122;24.746;2023-01-16T13:31:18;47.73;;;29.47;;
2674;SDS011;1347;42.122;24.746;2023-01-16T13:33:51;46.00;;;29.00;;
2674;SDS011;1347;42.122;24.746;2023-01-16T13:36:30;43.63;;;29.13;;
2674;SDS011;1347;42.122;24.746;2023-01-16T13:42:23;42.67;;;29.67;;
2674;SDS011;1347;42.122;24.746;2023-01-16T13:44:53;43.37;;;28.50;;
2674;SDS011;1347;42.122;24.746;2023-01-16T13:47:41;42.87;;;26.50;;
2674;SDS011;1347;42.122;24.746;2023-01-16T13:50:14;41.53;;;27.60;;
2674;SDS011;1347;42.122;24.746;2023-01-16T13:52:45;51.27;;;30.30;;
2674;SDS011;1347;42.122;24.746;2023-01-16T13:55:19;42.90;;;28.87;;
2674;SDS011;1347;42.122;24.746;2023-01-16T13:57:55;40.90;;;27.37;;
2674;SDS011;1347;42.122;24.746;2023-01-16T14:00:23;49.60;;;29.30;;
2674;SDS011;1347;42.122;24.746;2023-01-16T14:03:00;45.60;;;30.47;;
2674;SDS011;1347;42.122;24.746;2023-01-16T14:05:43;43.53;;;29.17;;
2674;SDS011;1347;42.122;24.746;2023-01-16T14:08:16;47.17;;;30.60;;
2674;SDS011;1347;42.122;24.746;2023-01-16T14:11:27;40.43;;;28.67;;
2674;SDS011;1347;42.122;24.746;2023-01-16T14:17:07;39.97;;;28.30;;
2674;SDS011;1347;42.122;24.746;2023-01-16T14:19:35;49.10;;;29.10;;
2674;SDS011;1347;42.122;24.746;2023-01-16T14:22:11;38.80;;;27.90;;
2674;SDS011;1347;42.122;24.746;2023-01-16T14:25:02;43.00;;;26.77;;
2674;SDS011;1347;42.122;24.746;2023-01-16T14:27:36;49.20;;;29.60;;
2674;SDS011;1347;42.122;24.746;2023-01-16T14:30:13;42.17;;;27.70;;
2674;SDS011;1347;42.122;24.746;2023-01-16T14:32:44;44.93;;;30.17;;
2674;SDS011;1347;42.122;24.746;2023-01-16T14:35:14;41.13;;;29.40;;
2674;SDS011;1347;42.122;24.746;2023-01-16T14:37:44;41.97;;;28.47;;
2674;SDS011;1347;42.122;24.746;2023-01-16T14:40:21;42.13;;;27.10;;
2674;SDS011;1347;42.122;24.746;2023-01-16T14:43:11;39.00;;;26.30;;
2674;SDS011;1347;42.122;24.746;2023-01-16T14:46:25;45.83;;;29.27;;
2674;SDS011;1347;42.122;24.746;2023-01-16T14:55:49;47.97;;;30.00;;
2674;SDS011;1347;42.122;24.746;2023-01-16T14:58:23;48.87;;;31.73;;
2674;SDS011;1347;42.122;24.746;2023-01-16T15:00:58;56.23;;;32.80;;
2674;SDS011;1347;42.122;24.746;2023-01-16T15:03:45;48.43;;;29.37;;
2674;SDS011;1347;42.122;24.746;2023-01-16T15:06:12;54.77;;;33.53;;
2674;SDS011;1347;42.122;24.746;2023-01-16T15:08:40;48.03;;;30.67;;
2674;SDS011;1347;42.122;24.746;2023-01-16T15:11:10;48.50;;;32.43;;
2674;SDS011;1347;42.122;24.746;2023-01-16T15:14:03;57.00;;;31.43;;
2674;SDS011;1347;42.122;24.746;2023-01-16T15:16:57;53.10;;;33.83;;
2674;SDS011;1347;42.122;24.746;2023-01-16T15:23:05;45.57;;;31.57;;
2674;SDS011;1347;42.122;24.746;2023-01-16T15:25:50;42.40;;;29.80;;
2674;SDS011;1347;42.122;24.746;2023-01-16T15:28:43;48.50;;;27.60;;
2674;SDS011;1347;42.122;24.746;2023-01-16T15:31:26;57.87;;;30.93;;
2674;SDS011;1347;42.122;24.746;2023-01-16T15:33:59;46.30;;;30.30;;
2674;SDS011;1347;42.122;24.746;2023-01-16T15:36:34;49.50;;;32.47;;
2674;SDS011;1347;42.122;24.746;2023-01-16T15:39:09;48.07;;;32.23;;
2674;SDS011;1347;42.122;24.746;2023-01-16T15:41:44;45.87;;;28.70;;